Aviation Digital Data Service (ADDS)

Output produced by METARs form (2058 UTC 20 October 2018)
found at http://www.aviationweather.gov/metar/data/
 
KABQ 201724Z 2018/2118 12015G22KT P6SM SCT090 
     FM210400 10012KT P6SM BKN080 
     FM211700 15007KT P6SM BKN080
       
KABY 201736Z 2018/2118 23004KT P6SM VCSH BKN020 
     FM202100 30009KT P6SM BKN050 OVC250 
     FM210000 35008KT P6SM BKN100
       
KACT 202052Z 2021/2118 01014KT P6SM FEW025 BKN300 
     FM210200 03008KT P6SM BKN300
       
KACV 201735Z 2018/2118 00000KT 1/4SM FG OVC002 
     TEMPO 2018/2019 1SM BR OVC003 
     FM201900 26004KT 4SM BR BKN005 
     TEMPO 2022/2101 6SM HZ SCT008 
     FM210300 00000KT 4SM BR BKN003 
     FM210700 00000KT 1SM BR OVC002
       
TAF KADW 201700Z 2017/2123 27012KT 9999 BKN030 QNH2966INS 
     BECMG 2103/2104 29012G18KT 9999 SCT050 BKN080 QNH2974INS 
     TEMPO 2104/2108 30015G25KT 
     BECMG 2107/2108 32020G35KT 9999 SCT035 510003 QNH2977INS 
     BECMG 2121/2122 31010G20KT 9999 SKC QNH3010INS TX19/2020Z TN06/2112Z
       
KAEG 201724Z 2018/2118 12012G18KT P6SM SCT090 
     FM210200 13007KT P6SM SCT080 
     FM211200 04006KT P6SM BKN080 
     FM211700 15007KT P6SM BKN080
       
KAEX 201740Z 2018/2118 02008KT P6SM VCSH OVC015 
     TEMPO 2018/2022 4SM SHRA BKN008 
     FM210000 01008KT P6SM OVC050
       
TAF KAFF 201903Z 2019/2201 15009KT 9999 SKC QNH3037INS 
     BECMG 2101/2102 34009KT 9999 SKC QNH3025INS 
     TEMPO 2107/2112 26009KT 520105 
     BECMG 2116/2117 02009KT 9999 SKC QNH3018INS TX19/2021Z TN01/2113Z LAST NO
AMDS AFT 2021 NEXT 2211
       
KAFW 202052Z 2021/2118 02014KT P6SM FEW150 SCT300 
     FM210200 01008KT P6SM SCT300 
     FM211500 07007KT P6SM BKN250
       
KAGC 201730Z 2018/2118 25012G26KT P6SM BKN060 
     FM202200 27011G24KT 5SM -SHRA OVC070 
     FM210100 28012G27KT 5SM -SHRA OVC035 
     FM210400 30013G30KT P6SM VCSH OVC015 
     FM211200 30011KT P6SM BKN025
       
KAGS 202016Z 2020/2118 24010G18KT P6SM VCSH SCT020 OVC040 
     FM202300 29008KT P6SM SKC 
     FM211400 36010G18KT P6SM SKC
       
KAHN 201730Z 2018/2118 28009KT P6SM VCSH SCT050 BKN070 
     FM202300 29008KT P6SM FEW015 
     FM210300 31010G17KT P6SM SKC 
     FM211200 03008KT P6SM SKC
       
KAIA 201739Z 2018/2118 16006KT P6SM SKC 
     FM202100 15005KT P6SM SKC 
     FM211400 26006KT P6SM SKC
       
KALB 201908Z 2019/2118 26010KT P6SM BKN060 
     FM202300 29005KT P6SM SCT120 
     FM210300 34007KT P6SM VCSH SCT040 OVC080 
     PROB30 2105/2110 4SM -SHRA BR BKN025 OVC040 
     FM211300 31015G23KT P6SM BKN050
       
KALS 201720Z 2018/2118 VRB05KT P6SM SKC 
     FM202100 15007KT P6SM SKC 
     FM210400 VRB05KT P6SM FEW150
       
KALW 201720Z 2018/2118 25005KT P6SM SKC 
     FM210200 12005KT P6SM SKC
       
KAMA 201727Z 2018/2118 05007KT P6SM SKC 
     FM202000 08006KT P6SM SKC 
     FM210000 11005KT P6SM SKC 
     FM210200 14006KT P6SM SKC 
     FM210500 18006KT P6SM SKC 
     FM211100 21015KT P6SM FEW250
       
KANB 201747Z 2018/2118 31007KT 6SM -RA BR OVC025 
     FM202000 31008KT P6SM OVC015 
     FM210000 31006KT P6SM SKC 
     FM210700 36008G15KT P6SM SKC
       
KAND 202014Z 2020/2118 27013G20KT P6SM SCT250 
     FM210100 28013KT P6SM SKC 
     FM210700 32008KT P6SM SKC
       
KAOO 201753Z 2018/2118 24010G18KT P6SM SCT029 BKN035 OVC060 
     FM201900 27013G21KT P6SM VCSH BKN045 
     FM210300 29015G27KT P6SM VCSH OVC030 
     FM210800 33020G28KT P6SM OVC025 
     PROB30 2108/2111 4SM -RASN OVC050 
     FM211100 32019G27KT P6SM VCSH OVC050 
     FM211400 31016G25KT P6SM OVC050
       
KAPA 201720Z 2018/2118 04008KT P6SM SKC 
     FM202100 12009KT P6SM SKC 
     FM210300 18009KT P6SM SKC 
     FM210800 20007KT P6SM SKC 
     FM211400 22005KT P6SM SKC
       
KAPF 201722Z 2018/2118 26007KT P6SM SCT025 SCT250 
     FM210000 VRB03KT P6SM FEW025 SCT250 
     FM211500 03007KT P6SM SCT030
       
KAPN 201727Z 2018/2118 31015G23KT P6SM VCSH BKN040 
     FM210000 32014G26KT P6SM VCSH OVC025 
     FM210400 33012KT P6SM BKN030 
     FM210700 32010KT P6SM SCT035 
     FM211600 29008KT P6SM BKN040
       
KARA 201740Z 2018/2118 28003KT P6SM VCSH FEW080 OVC150 
     FM201900 01008KT P6SM VCSH BKN015 OVC060 
     TEMPO 2019/2023 3SM SHRA BKN008 OVC015 
     FM202300 01010KT P6SM OVC015 
     TEMPO 2023/2103 3SM SHRA BKN008 OVC015 
     FM210300 03011G17KT P6SM OVC050
       
KASD 201723Z 2018/2118 28005KT P6SM VCSH BKN030 BKN080 
     FM202100 34006KT P6SM VCSH SCT030 BKN080 
     FM210000 36007KT P6SM SCT040 OVC050 
     FM210700 02009KT P6SM FEW070 SCT100
       
KASE 201720Z 2018/2118 36005KT P6SM SKC 
     FM210000 VRB05KT P6SM SKC 
     FM210200 20005KT P6SM SKC
       
KASN 201747Z 2018/2118 31007KT 6SM -RA BR OVC025 
     FM202000 31008KT P6SM OVC015 
     FM210000 31006KT P6SM SKC 
     FM210700 36008G15KT P6SM SKC
       
KAST 202057Z 2021/2118 35009KT P6SM SKC 
     FM210400 04005KT P6SM SCT350 
     FM210600 12004KT 3SM BR OVC002
       
KATW 201726Z 2018/2118 33020G30KT P6SM -SHRASN SCT025 OVC035 
     TEMPO 2018/2019 3SM -SHSN SCT017 OVC030 
     FM202100 33017G28KT P6SM SCT040 
     FM210000 32010G16KT P6SM SKC 
     FM210300 27007KT P6SM SCT150 
     FM211700 23011G16KT P6SM FEW120
       
KATL 201946Z 2020/2124 29010KT P6SM VCSH BKN025 
     FM202300 31010G17KT P6SM FEW020 
     FM210100 32012G20KT P6SM SKC 
     FM210600 33015G25KT P6SM SKC 
     FM211300 02011G18KT P6SM SKC 
     FM211700 34008KT P6SM SKC
       
KATY 201724Z 2018/2118 34014G22KT P6SM SKC 
     FM210000 31010KT P6SM SKC 
     FM210400 17005KT P6SM FEW250 
     FM211000 19013KT P6SM SKC WS020/22040KT 
     FM211500 22012G23KT P6SM SKC
       
KAUG 201735Z 2018/2118 24010G18KT P6SM SCT045 
     FM202200 32006KT P6SM SCT060 
     FM211200 34012G24KT P6SM BKN060
       
KAUS 201739Z 2018/2124 02014KT P6SM BKN015 OVC080 
     FM202000 02013G20KT P6SM BKN020 OVC070 
     FM210400 01012KT P6SM FEW025 BKN100 
     FM211300 01011KT P6SM BKN150
       
KAUW 201726Z 2018/2118 33019G30KT P6SM SCT030 BKN040 
     FM210100 30005KT P6SM SKC 
     FM211000 24005KT P6SM SCT120 
     FM211600 23009KT P6SM SCT100
       
KAVL 201934Z 2020/2118 35011G18KT P6SM SCT250 
     FM202100 35013G20KT P6SM SCT250 
     FM210300 35021G31KT P6SM FEW250 
     FM211700 35015G23KT P6SM SKC
       
KAVP 202056Z 2021/2118 24013G20KT P6SM BKN060 
     TEMPO 2021/2101 4SM -SHRA BR OVC035 
     FM210100 VRB04KT P6SM BKN060 
     FM210700 32010G20KT P6SM OVC035 
     TEMPO 2108/2112 -SHSNRA OVC025 
     FM211700 31010G20KT P6SM SCT050
       
KAXN 202034Z 2021/2118 33009KT P6SM SKC 
     FM210200 24004KT P6SM SKC 
     FM210900 18011KT P6SM SCT250 
     FM211500 20014G21KT P6SM SKC
       
KAZO 201932Z 2020/2118 31023G34KT 5SM BR SCT018 BKN023 OVC060 
     FM202300 34019G36KT 6SM -SHRA BR BKN080 
     FM210000 34016G32KT 6SM -SHRASN BR SCT040 
     FM210300 34015G30KT P6SM SCT250